Tiempo atmosférico en la estación meteorológica de Colunga, Asturias (35 m.)



Fecha
DESCASC
Temp. máxima en grados centígrados (hora)
DESCASC
Temp. mínima en grados centígrados (hora)
DESCASC
Temp. media en grados centígrados
DESCASC
Racha de viento máxima en m/sg (hora)
DESCASC
Velocidad máxima media en intervalos de 10 minutos(hora)
DESCASC
Precipitaciones diarias en mm
DESCASC
Precipitaciones de 00:00 a 06:00 en mm
DESCASC
Precipitaciones de 06:00 a 12:00 en mm
DESCASC
Precipitaciones de 12:00 a 18:00 en mm
DESCASC
Precipitaciones de 18:00 a 24:00 en mm
DESCASC
15-08-2019 22.6 (16:30) 16.8 (23:59) 19.7 5.28 (20:30) 3.33 (19:20) 0.2 0.2 0 0 0
14-08-2019 24.6 (17:40) 14.3 (00:00) 19.5 6.11 (19:10) 3.06 (00:50) 0.6 0 0 0 0.6
13-08-2019 22 (16:50) 12.7 (00:00) 17.3 7.22 (17:50) 4.17 (18:00) 0 0 0 0 0
12-08-2019 20.9 (16:30) 13.4 (00:00) 17.1 9.17 (13:40) 4.72 (12:50) 0.2 0 0.2 0 0
11-08-2019 21.7 (13:50) 14.5 (00:00) 18.1 7.5 (18:00) 4.17 (14:10) 7.8 0 0 2.8 5
10-08-2019 23 (12:50) 17.1 (00:00) 20.1 6.39 (11:50) 3.89 (11:50) 0 0 0 0 0
09-08-2019 23.1 (16:40) 18.9 (00:00) 21 6.11 (10:00) 3.61 (10:00) 0.4 0 0.4 0 0
08-08-2019 29.2 (19:20) 19.1 (00:00) 24.2 5.28 (22:20) 3.61 (22:20) 0.2 0.2 0 0 0
07-08-2019 23.8 (15:10) 17.1 (00:00) 20.4 6.39 (14:30) 4.17 (14:10) 0.2 0 0 0 0.2
06-08-2019 23.5 (16:20) 17.3 (00:00) 20.4 4.44 (13:20) 3.33 (12:20) 8 0 0 0 8
05-08-2019 24.1 (16:10) 19.4 (00:00) 21.8 4.44 (12:00) 3.06 (11:50) 0 0 0 0 0
04-08-2019 22.5 (15:20) 18 (00:00) 20.3 2.78 (13:30) 1.94 (14:40) 0 0 0 0 0
03-08-2019 23.7 (14:40) 17.7 (00:00) 20.7 4.72 (00:20) 2.78 (00:10) 0 0 0 0 0
02-08-2019 24.1 (16:00) 13.4 (00:00) 18.8 7.78 (16:20) 5 (16:30) 0 0 0 0 0
01-08-2019 22.8 (18:20) 16.8 (00:00) 19.8 6.39 (07:30) 3.89 (01:40) 0 0 0 0 0
31-07-2019 21.8 (15:20) 12.5 (00:00) 17.1 8.61 (14:50) 5.28 (18:20) 0 0 0 0 0
30-07-2019 21.9 (15:30) 15 (00:00) 18.4 7.22 (15:00) 3.61 (11:10) 0 0 0 0 0
29-07-2019 25.1 (14:40) 15.6 (00:00) 20.4 10 (17:40) 4.17 (17:30) 0 0 0 0 0
28-07-2019 22.4 (17:10) 14.2 (00:00) 18.3 10 (20:20) 5.56 (19:10) 0 0 0 0 0
27-07-2019 20.4 (20:00) 14.9 (00:00) 17.6 6.11 (16:30) 3.61 (16:40) 2.8 0.2 1.8 0.8 0
26-07-2019 21.3 (13:50) 15.8 (00:00) 18.5 5.28 (11:40) 3.06 (11:40) 13.6 11.6 0.2 0 1.8
25-07-2019 25.4 (17:00) 18.4 (00:00) 21.9 6.67 (17:50) 2.78 (14:50) 2 0 0 0 2
24-07-2019 24.1 (16:50) 18.6 (00:00) 21.4 5.56 (09:40) 3.33 (09:40) 0 0 0 0 0
23-07-2019 24.3 (15:50) 19 (00:00) 21.6 12.5 (00:20) 6.94 (00:20) 11 0.2 0 0 10.8
22-07-2019 23.9 (14:20) 20.1 (00:00) 22 9.44 (23:30) 5.28 (23:30) 0.6 0 0 0 0.6
21-07-2019 22.5 (16:50) 17.9 (00:00) 20.2 3.89 (06:40) 2.5 (06:40) 2 0.4 1.4 0.2 0
20-07-2019 23.4 (14:00) 16.8 (00:00) 20.1 4.44 (12:40) 3.06 (12:10) 0 0 0 0 0
19-07-2019 23.6 (16:20) 14.1 (00:00) 18.9 5.56 (15:30) 3.89 (15:20) 0 0 0 0 0

Gráficas

Temp. máximas Temp. mínimas Temp. medias Precipitaciones Rachas de viento máximas Velocidades máximas media en intervalos de 10 minutos

Datos horarios

Fecha y hora oficial Temperatura (ºC) Velocidad del viento (km/h) Dirección del viento Racha (km/h) Dirección de racha Precipitación (mm) Presión (hPa) Tendencia (hPa) Humedad (%)
2019-08-17 23:00:00 20.2 6 Oeste 10 Oeste 0 -- -- 89
2019-08-17 22:00:00 21.5 0 Calma 15 Este 0 -- -- 83
2019-08-17 21:00:00 22.7 7 Este 14 Este 0 -- -- 80
2019-08-17 20:00:00 24.6 6 Nordeste 15 Este 0 -- -- 77
2019-08-17 19:00:00 25.4 8 Este 16 Nordeste 0 -- -- 73
2019-08-17 18:00:00 25.9 10 Este 18 Este 0 -- -- 71
2019-08-17 17:00:00 26.1 14 Este 18 Este 0 -- -- 71
2019-08-17 16:00:00 26.3 12 Este 21 Este 0 -- -- 70
2019-08-17 15:00:00 25.7 13 Este 20 Este 0 -- -- 74
2019-08-17 14:00:00 25.6 5 Nordeste 15 Nordeste 0 -- -- 77
2019-08-17 13:00:00 25 11 Este 17 Este 0 -- -- 77
2019-08-17 12:00:00 24.6 9 Nordeste 13 Nordeste 0 -- -- 75
2019-08-17 11:00:00 23.7 7 Nordeste 10 Nordeste 0 -- -- 75
2019-08-17 10:00:00 21 3 Sur 8 Sudoeste 0 -- -- 92
2019-08-17 09:00:00 17.9 8 Sudoeste 12 Sudoeste 0 -- -- 98
2019-08-17 08:00:00 15.8 6 Sudoeste 12 Sudoeste 0 -- -- 99
2019-08-17 07:00:00 16 8 Sudoeste 14 Sudoeste 0 -- -- 98
2019-08-17 06:00:00 16.5 8 Sudoeste 14 Oeste 0 -- -- 98
2019-08-17 05:00:00 16.7 9 Oeste 14 Sudoeste 0 -- -- 98
2019-08-17 04:00:00 16.4 8 Sudoeste 13 Oeste 0 -- -- 98
2019-08-17 03:00:00 16.4 7 Sudoeste 12 Oeste 0 -- -- 96
2019-08-17 02:00:00 16.8 5 Sudoeste 12 Oeste 0 -- -- 95
2019-08-17 01:00:00 17.2 4 Sudoeste 13 Oeste 0 -- -- 94
2019-08-17 00:00:00 17.8 9 Oeste 13 Sudoeste 0 -- -- 94
2019-08-16 23:00:00 18.4 7 Oeste 12 Oeste 0 -- -- 92
2019-08-16 22:00:00 18.9 5 Oeste 10 Sudoeste 0 -- -- 90
2019-08-16 21:00:00 20.1 6 Sudoeste 17 Noroeste 0 -- -- 85
2019-08-16 20:00:00 21.3 3 Noroeste 19 Norte 0 -- -- 80
2019-08-16 19:00:00 22 8 Noroeste 17 Norte 0 -- -- 76
2019-08-16 18:00:00 23.3 7 Norte 17 Nordeste 0 -- -- 73
2019-08-16 17:00:00 22.6 8 Norte 22 Nordeste 0 -- -- 77
2019-08-16 16:00:00 22.4 11 Norte 17 Norte 0 -- -- 74
2019-08-16 15:00:00 22.3 10 Nordeste 15 Nordeste 0 -- -- 77
2019-08-16 14:00:00 22.2 10 Nordeste 17 Norte 0 -- -- 76
2019-08-16 13:00:00 21.8 8 Norte 15 Norte 0 -- -- 79
2019-08-16 12:00:00 21.3 10 Norte 18 Norte 0 -- -- 80
2019-08-16 11:00:00 20.6 9 Nordeste 13 Nordeste 0 -- -- 83
2019-08-16 10:00:00 18.3 4 Sur 11 Sudoeste 0 -- -- 95
2019-08-16 09:00:00 16 8 Sudoeste 13 Sudoeste 0 -- -- 99
2019-08-16 08:00:00 14.1 9 Sudoeste 13 Sudoeste 0 -- -- 99
2019-08-16 07:00:00 13.9 8 Oeste 13 Sudoeste 0 -- -- 98
2019-08-16 06:00:00 14.5 9 Sudoeste 12 Sudoeste 0 -- -- 97
2019-08-16 05:00:00 14.6 8 Sudoeste 13 Sudoeste 0 -- -- 96
2019-08-16 04:00:00 15.5 9 Sudoeste 15 Oeste 0 -- -- 95
2019-08-16 03:00:00 15 11 Sudoeste 15 Oeste 0 -- -- 95
2019-08-16 02:00:00 15.5 8 Oeste 14 Oeste 0 -- -- 93
2019-08-16 01:00:00 15.7 7 Sudoeste 13 Sudoeste 0 -- -- 93
2019-08-16 00:00:00 16.8 7 Sudoeste 12 Sudoeste 0 -- -- 88
2019-08-15 23:00:00 18.2 0 Calma 6 Sudeste 0 -- -- 84
2019-08-15 22:00:00 19.3 6 Este 18 Este 0 -- -- 79
2019-08-15 21:00:00 19.8 10 Este 19 Nordeste 0 -- -- 75
2019-08-15 20:00:00 21.3 10 Este 18 Nordeste 0 -- -- 70
2019-08-15 19:00:00 22 10 Este 17 Este 0 -- -- 67
2019-08-15 18:00:00 22.2 10 Nordeste 15 Nordeste 0 -- -- 64
2019-08-15 17:00:00 22.2 7 Nordeste 15 Nordeste 0 -- -- 63
2019-08-15 16:00:00 21.6 7 Norte 12 Norte 0 -- -- 66
2019-08-15 15:00:00 20.9 6 Nordeste 11 Nordeste 0 -- -- 69
2019-08-15 14:00:00 20.9 8 Nordeste 15 Norte 0 -- -- 72
2019-08-15 13:00:00 20.5 8 Nordeste 15 Nordeste 0 -- -- 76
2019-08-15 12:00:00 20.4 3 Norte 13 Sudoeste 0 -- -- 79
2019-08-15 11:00:00 19.3 6 Sudoeste 11 Sudoeste 0 -- -- 85
2019-08-15 10:00:00 18.7 4 Sudoeste 10 Oeste 0 -- -- 91
2019-08-15 09:00:00 17.8 5 Sudoeste 11 Oeste 0 -- -- 95
2019-08-15 08:00:00 17.3 6 Sudoeste 9 Sudoeste 0 -- -- 97
2019-08-15 07:00:00 17.3 5 Oeste 8 Oeste 0 -- -- 98
2019-08-15 06:00:00 17.3 5 Sudoeste 13 Sudoeste 0 -- -- 98
2019-08-15 05:00:00 17.4 6 Sudoeste 12 Sudoeste 0 -- -- 98
2019-08-15 04:00:00 17.8 3 Oeste 16 Oeste 0 -- -- 98
2019-08-15 03:00:00 18.1 7 Sudoeste 15 Oeste 0.2 -- -- 98
2019-08-15 02:00:00 18.7 5 Sudoeste 12 Sudoeste 0 -- -- 98
2019-08-15 01:00:00 19.1 6 Sudoeste 13 Sudoeste 0 -- -- 97
2019-08-15 00:00:00 19.5 6 Sudoeste 16 Oeste 0.4 -- -- 96
2019-08-14 23:00:00 20.2 7 Oeste 15 Noroeste 0.2 -- -- 95
2019-08-14 22:00:00 21.2 7 Oeste 17 Sudoeste 0 -- -- 88
2019-08-14 21:00:00 21.3 7 Oeste 15 Oeste 0 -- -- 87
2019-08-14 20:00:00 22 7 Sudoeste 22 Sudoeste 0 -- -- 83
2019-08-14 19:00:00 23.8 5 Oeste 19 Norte 0 -- -- 75
2019-08-14 18:00:00 23.7 9 Norte 19 Oeste 0 -- -- 74
2019-08-14 17:00:00 23.5 8 Nordeste 15 Nordeste 0 -- -- 70
2019-08-14 16:00:00 23.6 9 Nordeste 15 Nordeste 0 -- -- 65
2019-08-14 15:00:00 23.6 7 Nordeste 13 Nordeste 0 -- -- 71
2019-08-14 14:00:00 24.1 8 Nordeste 13 Nordeste 0 -- -- 68
2019-08-14 13:00:00 23.6 6 Este 13 Norte 0 -- -- 70
2019-08-14 12:00:00 22.8 9 Norte 14 Norte 0 -- -- 71
2019-08-14 11:00:00 21.9 6 Nordeste 10 Nordeste 0 -- -- 72
2019-08-14 10:00:00 19.6 5 Nordeste 12 Oeste 0 -- -- 85
2019-08-14 09:00:00 16.3 8 Sudoeste 13 Oeste 0 -- -- 93
2019-08-14 08:00:00 14.8 9 Sudoeste 13 Oeste 0 -- -- 94
2019-08-14 07:00:00 15 10 Oeste 14 Sudoeste 0 -- -- 94
2019-08-14 06:00:00 14.6 8 Sudoeste 10 Sudoeste 0 -- -- 94
2019-08-14 05:00:00 15.1 6 Sudoeste 15 Oeste 0 -- -- 92
2019-08-14 04:00:00 15 9 Sudoeste 14 Sudoeste 0 -- -- 93
2019-08-14 03:00:00 14.9 6 Sudoeste 13 Oeste 0 -- -- 93
2019-08-14 02:00:00 15.4 8 Sudoeste 14 Sudoeste 0 -- -- 91
2019-08-14 01:00:00 15.4 8 Sudoeste 15 Sudoeste 0 -- -- 91
2019-08-14 00:00:00 15.6 7 Oeste 10 Sudoeste 0 -- -- 91
2019-08-13 23:00:00 15.9 3 Sudoeste 6 Sudoeste 0 -- -- 87
2019-08-13 22:00:00 18.2 3 Este 24 Este 0 -- -- 77
2019-08-13 21:00:00 19.5 12 Este 24 Este 0 -- -- 74
2019-08-13 20:00:00 20.7 13 Este 24 Este 0 -- -- 70
2019-08-13 19:00:00 21.2 15 Este 25 Este 0 -- -- 68
2019-08-13 18:00:00 21.6 15 Este 26 Este 0 -- -- 65
2019-08-13 17:00:00 21.8 15 Este 26 Nordeste 0 -- -- 65
2019-08-13 16:00:00 21.8 14 Este 23 Nordeste 0 -- -- 66
2019-08-13 15:00:00 21.5 14 Nordeste 22 Nordeste 0 -- -- 65
2019-08-13 14:00:00 21.5 12 Este 21 Nordeste 0 -- -- 65
2019-08-13 13:00:00 21 12 Nordeste 22 Este 0 -- -- 69
2019-08-13 12:00:00 20.2 9 Norte 14 Norte 0 -- -- 73
2019-08-13 11:00:00 19.5 6 Nordeste 10 Nordeste 0 -- -- 73
2019-08-13 10:00:00 17.1 3 Sudoeste 12 Sudoeste 0 -- -- 85
2019-08-13 09:00:00 14.6 7 Sudoeste 16 Sudoeste 0 -- -- 91
2019-08-13 08:00:00 13.2 10 Oeste 16 Oeste 0 -- -- 93
2019-08-13 07:00:00 12.8 9 Oeste 14 Sudoeste 0 -- -- 94
2019-08-13 06:00:00 13.2 9 Oeste 15 Oeste 0 -- -- 93
2019-08-13 05:00:00 13.2 10 Sudoeste 15 Sudoeste 0 -- -- 92
2019-08-13 04:00:00 13.6 10 Oeste 18 Sudoeste 0 -- -- 91
2019-08-13 03:00:00 13.8 11 Sudoeste 15 Oeste 0 -- -- 91
2019-08-13 02:00:00 14.4 10 Oeste 15 Sudoeste 0 -- -- 90
2019-08-13 01:00:00 15 9 Oeste 14 Oeste 0 -- -- 90
2019-08-13 00:00:00 15.8 7 Oeste 13 Oeste 0 -- -- 89
2019-08-12 23:00:00 16.7 8 Oeste 13 Oeste 0 -- -- 85
2019-08-12 22:00:00 17 4 Oeste 6 Oeste 0 -- -- 83
2019-08-12 21:00:00 17.9 3 Oeste 8 Noroeste 0 -- -- 77
2019-08-12 20:00:00 18.9 3 Noroeste 8 Norte 0 -- -- 70
2019-08-12 19:00:00 19.4 3 Nordeste 17 Norte 0 -- -- 67
2019-08-12 18:00:00 20.4 9 Norte 19 Norte 0 -- -- 64
2019-08-12 17:00:00 20.6 11 Nordeste 23 Nordeste 0 -- -- 64
2019-08-12 16:00:00 19.4 6 Oeste 13 Oeste 0 -- -- 70
2019-08-12 15:00:00 19.8 9 Sudoeste 21 Sudoeste 0 -- -- 69
2019-08-12 14:00:00 17.7 13 Sudoeste 33 Sudoeste 0 -- -- 78
2019-08-12 13:00:00 17.6 13 Sudoeste 31 Sudoeste 0 -- -- 78
2019-08-12 12:00:00 19.5 12 Sudoeste 25 Sudoeste 0 -- -- 68
2019-08-12 11:00:00 19.1 10 Sudoeste 27 Sudoeste 0 -- -- 70
2019-08-12 10:00:00 16.8 7 Oeste 17 Oeste 0 -- -- 75
2019-08-12 09:00:00 15.9 9 Oeste 17 Oeste 0 -- -- 76
2019-08-12 08:00:00 15.2 8 Oeste 16 Sudoeste 0.2 -- -- 80
2019-08-12 07:00:00 15 10 Oeste 20 Oeste 0 -- -- 81
2019-08-12 06:00:00 14.3 7 Sudoeste 15 Oeste 0 -- -- 84
2019-08-12 05:00:00 13.8 8 Oeste 15 Oeste 0 -- -- 91
2019-08-12 04:00:00 14.1 6 Sudoeste 14 Oeste 0 -- -- 88
2019-08-12 03:00:00 14.7 8 Oeste 17 Sudoeste 0 -- -- 87
2019-08-12 02:00:00 14.7 6 Sudoeste 17 Sudoeste 0 -- -- 88
2019-08-12 01:00:00 14.1 9 Sudoeste 12 Sudoeste 0 -- -- 91
2019-08-12 00:00:00 14.5 7 Sudoeste 14 Oeste 0 -- -- 91
2019-08-11 23:00:00 14.9 7 Sudoeste 11 Oeste 0 -- -- 91
2019-08-11 22:00:00 15.6 5 Oeste 10 Oeste 0 -- -- 88
2019-08-11 21:00:00 16.8 5 Oeste 13 Oeste 0 -- -- 84
2019-08-11 20:00:00 17.4 6 Oeste 14 Sudoeste 0 -- -- 82
2019-08-11 19:00:00 17.1 7 Sudoeste 24 Oeste 5 -- -- 88
2019-08-11 18:00:00 18.3 12 Oeste 27 Oeste 2.8 -- -- 81
2019-08-11 17:00:00 20.4 5 Nordeste 21 Nordeste 0 -- -- 72
2019-08-11 16:00:00 20.9 11 Nordeste 23 Nordeste 0 -- -- 73
2019-08-11 15:00:00 21.5 14 Nordeste 25 Norte 0 -- -- 70
2019-08-11 14:00:00 21.5 13 Nordeste 23 Norte 0 -- -- 69
2019-08-11 13:00:00 20.1 4 Oeste 18 Oeste 0 -- -- 73
2019-08-11 12:00:00 20 8 Oeste 16 Sudoeste 0 -- -- 73
2019-08-11 11:00:00 19.1 7 Oeste 13 Oeste 0 -- -- 78
2019-08-11 10:00:00 18.2 7 Sudoeste 12 Oeste 0 -- -- 82
2019-08-11 09:00:00 17.3 6 Oeste 12 Sudoeste 0 -- -- 86
2019-08-11 08:00:00 16.7 6 Oeste 11 Oeste 0 -- -- 89
2019-08-11 07:00:00 16.6 6 Sudoeste 13 Oeste 0 -- -- 89
2019-08-11 06:00:00 16.4 7 Oeste 11 Sudoeste 0 -- -- 91
2019-08-11 05:00:00 16.4 4 Sudoeste 10 Oeste 0 -- -- 90
2019-08-11 04:00:00 16.8 6 Sudoeste 13 Sudoeste 0 -- -- 88
2019-08-11 03:00:00 17.1 10 Sudoeste 14 Sudoeste 0 -- -- 87
2019-08-11 02:00:00 17.4 7 Sudoeste 14 Oeste 0 -- -- 85
2019-08-11 01:00:00 17.5 5 Sudoeste 10 Sudoeste 0 -- -- 84
2019-08-11 00:00:00 17.5 7 Sudoeste 17 Oeste 0 -- -- 87
2019-08-10 23:00:00 17.5 6 Sur 11 Sur 0 -- -- 90
2019-08-10 22:00:00 18.3 6 Este 14 Este 0 -- -- 84
2019-08-10 21:00:00 18.8 4 Oeste 6 Sudoeste 0 -- -- 85
2019-08-10 20:00:00 20.4 0 Calma 9 Este 0 -- -- 75
2019-08-10 19:00:00 20.7 4 Nordeste 11 Este 0 -- -- 72
2019-08-10 18:00:00 21.1 7 Este 12 Este 0 -- -- 69
2019-08-10 17:00:00 21.9 6 Nordeste 14 Norte 0 -- -- 67
2019-08-10 16:00:00 22.4 10 Nordeste 16 Nordeste 0 -- -- 67
2019-08-10 15:00:00 21.4 9 Norte 21 Norte 0 -- -- 69
2019-08-10 14:00:00 22.2 12 Nordeste 20 Norte 0 -- -- 69
2019-08-10 13:00:00 22.1 11 Nordeste 21 Norte 0 -- -- 65
2019-08-10 12:00:00 22.4 13 Nordeste 23 Norte 0 -- -- 69
2019-08-10 11:00:00 22.2 10 Nordeste 16 Norte 0 -- -- 65
2019-08-10 10:00:00 20.1 3 Noroeste 9 Oeste 0 -- -- 70
2019-08-10 09:00:00 18.4 4 Sudoeste 9 Oeste 0 -- -- 81
2019-08-10 08:00:00 17.2 7 Sudoeste 14 Oeste 0 -- -- 84
2019-08-10 07:00:00 17.4 6 Oeste 11 Oeste 0 -- -- 86
2019-08-10 06:00:00 17.7 4 Oeste 13 Sudoeste 0 -- -- 91
2019-08-10 05:00:00 17.8 7 Sudoeste 12 Sudoeste 0 -- -- 96
2019-08-10 04:00:00 18.2 5 Sudoeste 12 Sudoeste 0 -- -- 96
2019-08-10 03:00:00 18.8 6 Oeste 14 Oeste 0 -- -- 98
2019-08-10 02:00:00 18.5 9 Sudoeste 15 Oeste 0 -- -- 98
2019-08-10 01:00:00 18.2 5 Sudoeste 8 Oeste 0 -- -- 99
2019-08-10 00:00:00 18.9 5 Sudoeste 8 Oeste 0 -- -- 98
2019-08-09 23:00:00 19.4 2 Sudoeste 8 Norte 0 -- -- 97
2019-08-09 22:00:00 20.3 3 Norte 8 Nordeste 0 -- -- 94
2019-08-09 21:00:00 20.9 0 Calma 7 Nordeste 0 -- -- 92
2019-08-09 20:00:00 21.4 0 Calma 9 Este 0 -- -- 89
2019-08-09 19:00:00 21.6 3 Nordeste 8 Nordeste 0 -- -- 89
2019-08-09 18:00:00 22.5 3 Nordeste 13 Este 0 -- -- 87
2019-08-09 17:00:00 22.7 9 Este 16 Este 0 -- -- 85
2019-08-09 16:00:00 22.4 8 Este 13 Este 0 -- -- 88
2019-08-09 15:00:00 22.1 4 Nordeste 8 Nordeste 0 -- -- 91
2019-08-09 14:00:00 21.6 4 Este 17 Este 0 -- -- 94
2019-08-09 13:00:00 21.6 10 Este 16 Este 0 -- -- 94
2019-08-09 12:00:00 21.8 6 Nordeste 13 Nordeste 0 -- -- 97
2019-08-09 11:00:00 21.3 6 Este 19 Este 0 -- -- 98
2019-08-09 10:00:00 21.1 13 Este 22 Este 0 -- -- 99
2019-08-09 09:00:00 21.3 5 Nordeste 9 Este 0 -- -- 99
2019-08-09 08:00:00 21.1 0 Calma 5 Sudoeste 0.4 -- -- 98
2019-08-09 07:00:00 21.2 0 Calma 7 Sudeste 0 -- -- 97
2019-08-09 06:00:00 21.3 2 Sur 6 Nordeste 0 -- -- 96
2019-08-09 05:00:00 21.5 4 Este 13 Sudoeste 0 -- -- 95
2019-08-09 04:00:00 22.5 5 Oeste 16 Noroeste 0 -- -- 94
2019-08-09 03:00:00 21.8 7 Oeste 13 Sudoeste 0 -- -- 97
2019-08-09 02:00:00 22 3 Oeste 8 Oeste 0 -- -- 97
2019-08-09 01:00:00 21.9 3 Sudoeste 7 Sudoeste 0 -- -- 95
2019-08-09 00:00:00 22.8 2 Este 13 Norte 0 -- -- 91
2019-08-08 23:00:00 25.4 5 Sur 19 Oeste 0 -- -- 80
2019-08-08 22:00:00 25.2 2 Oeste 13 Sudoeste 0 -- -- 86
2019-08-08 21:00:00 26.6 6 Sudoeste 11 Oeste 0 -- -- 80
2019-08-08 20:00:00 26.3 3 Nordeste 10 Nordeste 0 -- -- 76
2019-08-08 19:00:00 28.3 2 Sudoeste 15 Nordeste 0 -- -- 68
2019-08-08 18:00:00 25.8 8 Norte 15 Nordeste 0 -- -- 71
2019-08-08 17:00:00 25.5 4 Nordeste 17 Norte 0 -- -- 76
2019-08-08 16:00:00 24.9 8 Norte 18 Nordeste 0 -- -- 81
2019-08-08 15:00:00 25.1 10 Nordeste 15 Nordeste 0 -- -- 82
2019-08-08 14:00:00 24.5 9 Nordeste 13 Nordeste 0 -- -- 84
2019-08-08 13:00:00 24.5 8 Nordeste 14 Nordeste 0 -- -- 79
2019-08-08 12:00:00 24 11 Nordeste 15 Nordeste 0 -- -- 78
2019-08-08 11:00:00 23.4 8 Nordeste 10 Norte 0 -- -- 84
2019-08-08 10:00:00 22 6 Nordeste 10 Nordeste 0 -- -- 92
2019-08-08 09:00:00 20.2 3 Sudoeste 11 Sudoeste 0 -- -- 98
2019-08-08 08:00:00 19.1 5 Sudoeste 12 Sudoeste 0 -- -- 99
2019-08-08 07:00:00 19.3 6 Sudoeste 13 Sudoeste 0 -- -- 100
2019-08-08 06:00:00 19.2 6 Oeste 10 Oeste 0.2 -- -- 99
2019-08-08 05:00:00 19.6 4 Sudoeste 6 Sudoeste 0 -- -- 99
2019-08-08 04:00:00 19.8 0 Calma 13 Sudoeste 0 -- -- 99
2019-08-08 03:00:00 19.9 9 Sudoeste 12 Oeste 0 -- -- 99
2019-08-08 02:00:00 19.7 6 Sudoeste 11 Sudoeste 0 -- -- 98
2019-08-08 01:00:00 20.3 3 Oeste 16 Nordeste 0 -- -- 97
2019-08-08 00:00:00 20.8 8 Nordeste 15 Este 0 -- -- 97
2019-08-07 23:00:00 21 7 Norte 12 Norte 0 -- -- 96
2019-08-07 22:00:00 21 3 Norte 7 Nordeste 0 -- -- 95
2019-08-07 21:00:00 21.5 4 Nordeste 6 Nordeste 0.2 -- -- 93
2019-08-07 20:00:00 22.2 2 Norte 12 Este 0 -- -- 90
2019-08-07 19:00:00 22.2 3 Nordeste 10 Nordeste 0 -- -- 91
2019-08-07 18:00:00 22.5 4 Nordeste 14 Nordeste 0 -- -- 90
2019-08-07 17:00:00 22.7 8 Nordeste 15 Este 0 -- -- 91
2019-08-07 16:00:00 23 7 Nordeste 18 Nordeste 0 -- -- 87
2019-08-07 15:00:00 23.6 10 Este 23 Nordeste 0 -- -- 86
2019-08-07 14:00:00 23.2 13 Este 21 Este 0 -- -- 87
2019-08-07 13:00:00 23.4 12 Nordeste 19 Este 0 -- -- 84
2019-08-07 12:00:00 23.3 8 Este 16 Este 0 -- -- 84
2019-08-07 11:00:00 22.1 6 Norte 10 Norte 0 -- -- 88
2019-08-07 10:00:00 20.8 4 Este 6 Nordeste 0 -- -- 97
2019-08-07 09:00:00 18.7 5 Sudoeste 9 Sudoeste 0 -- -- 99
2019-08-07 08:00:00 17.6 4 Sudoeste 11 Sudoeste 0 -- -- 99
2019-08-07 07:00:00 17.2 3 Sudoeste 10 Sudoeste 0 -- -- 97
2019-08-07 06:00:00 18.4 6 Sudoeste 12 Sudoeste 0 -- -- 97
2019-08-07 05:00:00 18.5 9 Oeste 15 Sudoeste 0 -- -- 97
2019-08-07 04:00:00 18.7 11 Oeste 17 Oeste 0 -- -- 98
2019-08-07 03:00:00 18.8 10 Oeste 17 Oeste 0 -- -- 99
2019-08-07 02:00:00 18.7 6 Sudoeste 13 Sudoeste 0 -- -- 99
2019-08-07 01:00:00 18.9 0 Calma 7 Sudoeste 0 -- -- 99
2019-08-07 00:00:00 19.1 5 Sudoeste 12 Noroeste 0 -- -- 99
2019-08-06 23:00:00 19.3 6 Oeste 12 Oeste 0 -- -- 99
2019-08-06 22:00:00 19.4 0 Calma 7 Oeste 0.2 -- -- 98
2019-08-06 21:00:00 19.6 5 Sudoeste 8 Sudoeste 0 -- -- 97
2019-08-06 20:00:00 19.6 4 Oeste 15 Oeste 7.4 -- -- 95
2019-08-06 19:00:00 21.5 2 Oeste 9 Noroeste 0.4 -- -- 86
2019-08-06 18:00:00 22.9 2 Sur 12 Oeste 0 -- -- 76
2019-08-06 17:00:00 23.2 5 Noroeste 12 Sudoeste 0 -- -- 75
2019-08-06 16:00:00 23.4 6 Nordeste 13 Nordeste 0 -- -- 75
2019-08-06 15:00:00 22.7 9 Nordeste 12 Nordeste 0 -- -- 82
2019-08-06 14:00:00 23.2 7 Nordeste 16 Norte 0 -- -- 81
2019-08-06 13:00:00 22.7 10 Norte 15 Nordeste 0 -- -- 81
2019-08-06 12:00:00 22.3 8 Nordeste 11 Nordeste 0 -- -- 82
2019-08-06 11:00:00 21.1 6 Nordeste 9 Nordeste 0 -- -- 86
2019-08-06 10:00:00 20.6 5 Nordeste 10 Oeste 0 -- -- 91
2019-08-06 09:00:00 18.8 4 Sudoeste 13 Sudoeste 0 -- -- 97
2019-08-06 08:00:00 17.6 8 Sudoeste 13 Sudoeste 0 -- -- 99
2019-08-06 07:00:00 17.4 9 Sudoeste 14 Oeste 0 -- -- 99
2019-08-06 06:00:00 17.7 5 Oeste 10 Sudoeste 0 -- -- 99
2019-08-06 05:00:00 18 6 Oeste 10 Sudoeste 0 -- -- 99
2019-08-06 04:00:00 18.2 5 Sudoeste 7 Sudoeste 0 -- -- 98
2019-08-06 03:00:00 19.1 6 Sudoeste 9 Sudoeste 0 -- -- 97
2019-08-06 02:00:00 18.6 0 Calma 5 Sudoeste 0 -- -- 95
2019-08-06 01:00:00 20.2 2 Sudoeste 4 Sudoeste 0 -- -- 95
2019-08-06 00:00:00 20.3 3 Sudoeste 5 Sudoeste 0 -- -- 95
2019-08-05 23:00:00 20.1 0 Calma 2 Noroeste 0 -- -- 94
2019-08-05 22:00:00 20.3 2 Nordeste 4 Norte 0 -- -- 91
2019-08-05 21:00:00 21.8 2 Nordeste 8 Nordeste 0 -- -- 86
2019-08-05 20:00:00 22.9 5 Nordeste 13 Nordeste 0 -- -- 84
2019-08-05 19:00:00 23.4 7 Nordeste 13 Nordeste 0 -- -- 82
2019-08-05 18:00:00 23.7 7 Nordeste 13 Nordeste 0 -- -- 81
2019-08-05 17:00:00 23.8 10 Nordeste 15 Nordeste 0 -- -- 80
2019-08-05 16:00:00 23.9 7 Nordeste 13 Norte 0 -- -- 80
2019-08-05 15:00:00 23.3 9 Nordeste 13 Nordeste 0 -- -- 82
2019-08-05 14:00:00 23.2 10 Norte 14 Norte 0 -- -- 82
2019-08-05 13:00:00 22.6 9 Norte 15 Norte 0 -- -- 84
2019-08-05 12:00:00 22.6 10 Norte 16 Nordeste 0 -- -- 83
2019-08-05 11:00:00 22.2 9 Nordeste 11 Nordeste 0 -- -- 84
2019-08-05 10:00:00 20.9 0 Calma 5 Sudoeste 0 -- -- 93
2019-08-05 09:00:00 19.7 3 Oeste 8 Oeste 0 -- -- 96
2019-08-05 08:00:00 19.5 4 Oeste 6 Oeste 0 -- -- 97
2019-08-05 07:00:00 19.5 3 Sudoeste 5 Sudoeste 0 -- -- 96
2019-08-05 06:00:00 19.6 2 Oeste 6 Oeste 0 -- -- 95
2019-08-05 05:00:00 19.6 3 Sudoeste 7 Oeste 0 -- -- 95
2019-08-05 04:00:00 19.7 4 Oeste 8 Oeste 0 -- -- 95
2019-08-05 03:00:00 19.8 4 Oeste 8 Oeste 0 -- -- 95
2019-08-05 02:00:00 19.9 3 Oeste 5 Oeste 0 -- -- 96
2019-08-05 01:00:00 20 0 Calma 0 Calma 0 -- -- 95
2019-08-05 00:00:00 20 0 Calma 0 Calma 0 -- -- 94
2019-08-04 23:00:00 20.3 2 Oeste 5 Noroeste 0 -- -- 92
2019-08-04 22:00:00 20.7 4 Noroeste 6 Oeste 0 -- -- 89
2019-08-04 21:00:00 21.1 2 Noroeste 6 Norte 0 -- -- 87
2019-08-04 20:00:00 21.5 2 Este 5 Este 0 -- -- 86
2019-08-04 19:00:00 21.6 2 Nordeste 8 Norte 0 -- -- 85
2019-08-04 18:00:00 21.9 6 Norte 10 Norte 0 -- -- 85
2019-08-04 17:00:00 22.1 5 Norte 8 Nordeste 0 -- -- 85
2019-08-04 16:00:00 22.3 6 Este 9 Nordeste 0 -- -- 85
2019-08-04 15:00:00 22.2 6 Nordeste 9 Nordeste 0 -- -- 86
2019-08-04 14:00:00 21.8 6 Nordeste 10 Norte 0 -- -- 87
2019-08-04 13:00:00 21.6 5 Norte 8 Este 0 -- -- 86
2019-08-04 12:00:00 21.4 5 Este 8 Nordeste 0 -- -- 89
2019-08-04 11:00:00 21 4 Nordeste 6 Nordeste 0 -- -- 93
2019-08-04 10:00:00 20.4 4 Nordeste 6 Sudoeste 0 -- -- 97
2019-08-04 09:00:00 19.7 3 Sudoeste 8 Oeste 0 -- -- 99
2019-08-04 08:00:00 18.6 4 Sudoeste 8 Sudoeste 0 -- -- 99
2019-08-04 07:00:00 18.1 3 Sudoeste 7 Oeste 0 -- -- 99
2019-08-04 06:00:00 18.7 4 Oeste 7 Sudoeste 0 -- -- 98
2019-08-04 05:00:00 18.7 4 Sudoeste 8 Sudoeste 0 -- -- 98
2019-08-04 04:00:00 18.9 3 Oeste 8 Sudoeste 0 -- -- 98
2019-08-04 03:00:00 18.8 0 Calma 6 Sudoeste 0 -- -- 98
2019-08-04 02:00:00 19.1 4 Sudoeste 6 Sudoeste 0 -- -- 98
2019-08-04 01:00:00 18.7 4 Sudoeste 6 Oeste 0 -- -- 98
2019-08-04 00:00:00 18.3 4 Sudoeste 6 Sudoeste 0 -- -- 96
2019-08-03 23:00:00 19.1 3 Oeste 5 Oeste 0 -- -- 94
2019-08-03 22:00:00 19.7 3 Noroeste 4 Noroeste 0 -- -- 90
2019-08-03 21:00:00 21.7 0 Calma 8 Nordeste 0 -- -- 84
2019-08-03 20:00:00 22.4 3 Nordeste 9 Nordeste 0 -- -- 83
2019-08-03 19:00:00 22.7 5 Nordeste 12 Nordeste 0 -- -- 81
2019-08-03 18:00:00 23.1 5 Nordeste 10 Nordeste 0 -- -- 81
2019-08-03 17:00:00 23.5 5 Nordeste 10 Nordeste 0 -- -- 80
2019-08-03 16:00:00 23.3 6 Nordeste 11 Este 0 -- -- 81
2019-08-03 15:00:00 23.7 7 Nordeste 14 Nordeste 0 -- -- 80
2019-08-03 14:00:00 22.4 8 Nordeste 11 Nordeste 0 -- -- 84
2019-08-03 13:00:00 22.2 7 Norte 12 Nordeste 0 -- -- 85
2019-08-03 12:00:00 21.5 5 Norte 12 Norte 0 -- -- 86
2019-08-03 11:00:00 21.5 2 Oeste 6 Oeste 0 -- -- 83
2019-08-03 10:00:00 20.6 0 Calma 6 Nordeste 0 -- -- 92
2019-08-03 09:00:00 19.5 3 Sudoeste 6 Sudoeste 0 -- -- 98
2019-08-03 08:00:00 18.6 6 Sudoeste 8 Oeste 0 -- -- 98
2019-08-03 07:00:00 18.3 2 Sudoeste 6 Sudoeste 0 -- -- 98
2019-08-03 06:00:00 17.7 0 Calma 5 Sudoeste 0 -- -- 96
2019-08-03 05:00:00 19 2 Sur 12 Este 0 -- -- 93
2019-08-03 04:00:00 19.6 3 Este 12 Este 0 -- -- 94
2019-08-03 03:00:00 19.5 3 Este 10 Este 0 -- -- 94
2019-08-03 02:00:00 19.5 3 Este 17 Este 0 -- -- 93
2019-08-03 01:00:00 19.9 9 Este 17 Este 0 -- -- 92
2019-08-03 00:00:00 20.1 11 Este 22 Este 0 -- -- 91
2019-08-02 23:00:00 20.1 14 Este 23 Este 0 -- -- 91
2019-08-02 22:00:00 20.5 11 Este 23 Este 0 -- -- 91
2019-08-02 21:00:00 21.2 14 Este 26 Este 0 -- -- 88
2019-08-02 20:00:00 22.1 15 Este 27 Este 0 -- -- 84
2019-08-02 19:00:00 21.9 15 Este 27 Este 0 -- -- 84
2019-08-02 18:00:00 22.3 17 Este 28 Este 0 -- -- 82
2019-08-02 17:00:00 23.3 15 Este 28 Este 0 -- -- 81
2019-08-02 16:00:00 24.1 16 Este 28 Nordeste 0 -- -- 76
2019-08-02 15:00:00 23.3 15 Este 26 Nordeste 0 -- -- 80
2019-08-02 14:00:00 23.1 16 Este 27 Nordeste 0 -- -- 79
2019-08-02 13:00:00 22.8 14 Este 23 Este 0 -- -- 80
2019-08-02 12:00:00 21.7 12 Nordeste 17 Nordeste 0 -- -- 82
2019-08-02 11:00:00 21.1 11 Nordeste 18 Este 0 -- -- 84
2019-08-02 10:00:00 19.1 6 Nordeste 11 Nordeste 0 -- -- 97
2019-08-02 09:00:00 16.3 2 Sudoeste 9 Sudoeste 0 -- -- 100
2019-08-02 08:00:00 14.3 4 Sudoeste 10 Oeste 0 -- -- 100
2019-08-02 07:00:00 13.4 3 Oeste 6 Sudoeste 0 -- -- 99
2019-08-02 06:00:00 13.9 3 Sudoeste 7 Sudoeste 0 -- -- 99
2019-08-02 05:00:00 14.4 4 Sudoeste 8 Sudoeste 0 -- -- 98
2019-08-02 04:00:00 14.8 2 Sudoeste 9 Sudoeste 0 -- -- 97
2019-08-02 03:00:00 15.5 5 Sudoeste 10 Sudoeste 0 -- -- 97
2019-08-02 02:00:00 16 6 Oeste 8 Oeste 0 -- -- 96
2019-08-02 01:00:00 16.6 2 Oeste 6 Sudoeste 0 -- -- 94
2019-08-02 00:00:00 18.4 5 Este 8 Este 0 -- -- 92
2019-08-01 23:00:00 19.5 5 Este 15 Este 0 -- -- 88
2019-08-01 22:00:00 20.2 8 Este 16 Este 0 -- -- 86
2019-08-01 21:00:00 20.6 9 Este 19 Este 0 -- -- 85
2019-08-01 20:00:00 21.6 10 Este 20 Nordeste 0 -- -- 79
2019-08-01 19:00:00 22.6 11 Este 21 Nordeste 0 -- -- 75
2019-08-01 18:00:00 22.7 7 Nordeste 14 Nordeste 0 -- -- 80
2019-08-01 17:00:00 22.2 8 Nordeste 15 Nordeste 0 -- -- 83
2019-08-01 16:00:00 21.8 10 Norte 17 Nordeste 0 -- -- 83
2019-08-01 15:00:00 21.5 9 Norte 13 Norte 0 -- -- 82
2019-08-01 14:00:00 21.2 8 Norte 15 Norte 0 -- -- 84
2019-08-01 13:00:00 21.5 6 Nordeste 13 Nordeste 0 -- -- 82
2019-08-01 12:00:00 19.7 7 Este 12 Este 0 -- -- 88
2019-08-01 11:00:00 19.4 5 Nordeste 12 Este 0 -- -- 88
2019-08-01 10:00:00 18.9 8 Este 13 Nordeste 0 -- -- 91
2019-08-01 09:00:00 18.2 7 Nordeste 15 Este 0 -- -- 93
2019-08-01 08:00:00 18.1 9 Este 23 Este 0 -- -- 93
2019-08-01 07:00:00 16.9 5 Sudoeste 8 Sudoeste 0 -- -- 90
2019-08-01 06:00:00 17.7 0 Calma 15 Este 0 -- -- 85
2019-08-01 05:00:00 18.5 7 Este 17 Este 0 -- -- 83
2019-08-01 04:00:00 18.8 9 Este 20 Este 0 -- -- 82
2019-08-01 03:00:00 19 11 Este 21 Este 0 -- -- 82
2019-08-01 02:00:00 19 12 Este 23 Este 0 -- -- 80
2019-08-01 01:00:00 18.5 0 Calma 11 Este 0 -- -- 85
2019-08-01 00:00:00 18.8 3 Sudeste 7 Sudeste 0 -- -- 83
2019-07-31 23:00:00 19.4 5 Sudeste 27 Nordeste 0 -- -- 81
2019-07-31 22:00:00 19.6 15 Este 26 Este 0 -- -- 79
2019-07-31 21:00:00 20 14 Este 27 Este 0 -- -- 76
2019-07-31 20:00:00 20.6 17 Este 28 Este 0 -- -- 72
2019-07-31 19:00:00 21.5 18 Este 29 Este 0 -- -- 70
2019-07-31 18:00:00 20.9 18 Este 30 Este 0 -- -- 71
2019-07-31 17:00:00 21.3 17 Este 29 Este 0 -- -- 67
2019-07-31 16:00:00 21.4 16 Este 31 Este 0 -- -- 66
2019-07-31 15:00:00 21.7 17 Este 31 Nordeste 0 -- -- 66
2019-07-31 14:00:00 21.4 17 Este 29 Este 0 -- -- 66
2019-07-31 13:00:00 21.2 10 Nordeste 15 Este 0 -- -- 73
2019-07-31 12:00:00 20.7 8 Nordeste 15 Nordeste 0 -- -- 74
2019-07-31 11:00:00 19.8 7 Nordeste 10 Nordeste 0 -- -- 75
2019-07-31 10:00:00 17.8 5 Nordeste 9 Sudoeste 0 -- -- 82
2019-07-31 09:00:00 14.7 8 Sudoeste 13 Sudoeste 0 -- -- 92
2019-07-31 08:00:00 12.8 8 Sudoeste 14 Sudoeste 0 -- -- 95
2019-07-31 07:00:00 12.6 9 Sudoeste 14 Oeste 0 -- -- 94
2019-07-31 06:00:00 12.8 10 Sudoeste 14 Oeste 0 -- -- 94
2019-07-31 05:00:00 13.6 8 Oeste 14 Oeste 0 -- -- 92
2019-07-31 04:00:00 13.9 9 Sudoeste 14 Sudoeste 0 -- -- 93
2019-07-31 03:00:00 14.8 8 Oeste 11 Oeste 0 -- -- 91
2019-07-31 02:00:00 15.7 6 Oeste 10 Sudoeste 0 -- -- 87
2019-07-31 01:00:00 16.8 6 Oeste 10 Oeste 0 -- -- 84
2019-07-31 00:00:00 17.3 5 Oeste 9 Oeste 0 -- -- 82
2019-07-30 23:00:00 17.3 0 Calma 4 Sudoeste 0 -- -- 83
2019-07-30 22:00:00 18 2 Oeste 5 Noroeste 0 -- -- 76
2019-07-30 21:00:00 18.8 2 Sudoeste 7 Oeste 0 -- -- 72
2019-07-30 20:00:00 19.3 2 Noroeste 10 Norte 0 -- -- 69
2019-07-30 19:00:00 19.4 4 Norte 16 Norte 0 -- -- 67
2019-07-30 18:00:00 19.6 6 Norte 24 Nordeste 0 -- -- 67
2019-07-30 17:00:00 21.1 9 Nordeste 21 Norte 0 -- -- 66
2019-07-30 16:00:00 21.6 9 Nordeste 22 Oeste 0 -- -- 64
2019-07-30 15:00:00 21.5 10 Noroeste 26 Oeste 0 -- -- 62
2019-07-30 14:00:00 21.1 5 Noroeste 19 Oeste 0 -- -- 61
2019-07-30 13:00:00 19.9 9 Oeste 21 Oeste 0 -- -- 64
2019-07-30 12:00:00 21 13 Sudoeste 25 Sudoeste 0 -- -- 54
2019-07-30 11:00:00 19.6 11 Sudoeste 19 Sudoeste 0 -- -- 61
2019-07-30 10:00:00 18.1 8 Oeste 16 Sudoeste 0 -- -- 66
2019-07-30 09:00:00 17.4 9 Oeste 18 Oeste 0 -- -- 66
2019-07-30 08:00:00 16.4 7 Oeste 15 Oeste 0 -- -- 70
2019-07-30 07:00:00 16.2 8 Oeste 18 Oeste 0 -- -- 69
2019-07-30 06:00:00 15.7 8 Oeste 15 Oeste 0 -- -- 71
2019-07-30 05:00:00 15.6 6 Oeste 14 Oeste 0 -- -- 71
2019-07-30 04:00:00 15.3 3 Sudoeste 13 Oeste 0 -- -- 73
2019-07-30 03:00:00 15.3 4 Oeste 15 Oeste 0 -- -- 75
2019-07-30 02:00:00 15.8 5 Sudoeste 17 Oeste 0 -- -- 77
2019-07-30 01:00:00 16.3 8 Sudoeste 15 Oeste 0 -- -- 76
2019-07-30 00:00:00 17.3 6 Oeste 17 Sudoeste 0 -- -- 72
2019-07-29 23:00:00 17.9 6 Oeste 18 Sudoeste 0 -- -- 71
2019-07-29 22:00:00 18.9 11 Oeste 26 Oeste 0 -- -- 69
2019-07-29 21:00:00 20 10 Oeste 30 Oeste 0 -- -- 67
2019-07-29 20:00:00 21 15 Oeste 33 Sudoeste 0 -- -- 65
2019-07-29 19:00:00 22.4 12 Oeste 29 Oeste 0 -- -- 64
2019-07-29 18:00:00 22.7 13 Oeste 36 Oeste 0 -- -- 62
2019-07-29 17:00:00 23.8 8 Oeste 29 Oeste 0 -- -- 62
2019-07-29 16:00:00 23.6 11 Sudoeste 29 Oeste 0 -- -- 62
2019-07-29 15:00:00 24.8 11 Oeste 28 Oeste 0 -- -- 54
2019-07-29 14:00:00 22.7 6 Nordeste 18 Sudoeste 0 -- -- 66
2019-07-29 13:00:00 22.6 8 Noroeste 18 Oeste 0 -- -- 67
2019-07-29 12:00:00 22.5 10 Norte 19 Norte 0 -- -- 71
2019-07-29 11:00:00 22.2 6 Norte 18 Nordeste 0 -- -- 73
2019-07-29 10:00:00 20.8 6 Nordeste 15 Nordeste 0 -- -- 78
2019-07-29 09:00:00 18.2 9 Sudoeste 12 Sudoeste 0 -- -- 89
2019-07-29 08:00:00 16.4 8 Sudoeste 11 Sudoeste 0 -- -- 94
2019-07-29 07:00:00 15.7 8 Sudoeste 11 Sudoeste 0 -- -- 94
2019-07-29 06:00:00 16.8 9 Sudoeste 16 Sudoeste 0 -- -- 92
2019-07-29 05:00:00 18.3 9 Oeste 18 Oeste 0 -- -- 88
2019-07-29 04:00:00 17.6 9 Oeste 16 Oeste 0 -- -- 92
2019-07-29 03:00:00 17.3 9 Oeste 13 Sudoeste 0 -- -- 94
2019-07-29 02:00:00 16.6 9 Sudoeste 16 Oeste 0 -- -- 94
2019-07-29 01:00:00 16.6 10 Sudoeste 15 Sudoeste 0 -- -- 94
2019-07-29 00:00:00 17.2 7 Sudoeste 10 Oeste 0 -- -- 91
2019-07-28 23:00:00 18.9 4 Este 20 Este 0 -- -- 84
2019-07-28 22:00:00 19.7 15 Este 27 Este 0 -- -- 81
2019-07-28 21:00:00 20.3 18 Este 36 Este 0 -- -- 80
2019-07-28 20:00:00 21.3 17 Este 33 Este 0 -- -- 76
2019-07-28 19:00:00 21.6 18 Este 30 Este 0 -- -- 76
2019-07-28 18:00:00 22.2 16 Este 26 Este 0 -- -- 74
2019-07-28 17:00:00 22.3 14 Este 22 Este 0 -- -- 71
2019-07-28 16:00:00 22 13 Nordeste 22 Nordeste 0 -- -- 75
2019-07-28 15:00:00 21.6 13 Nordeste 19 Este 0 -- -- 74
2019-07-28 14:00:00 21.5 7 Nordeste 15 Norte 0 -- -- 74
2019-07-28 13:00:00 20.9 9 Norte 15 Nordeste 0 -- -- 75
2019-07-28 12:00:00 20.9 8 Nordeste 11 Norte 0 -- -- 74
2019-07-28 11:00:00 21 6 Este 12 Nordeste 0 -- -- 71
2019-07-28 10:00:00 18.6 5 Sudoeste 11 Sudoeste 0 -- -- 79
2019-07-28 09:00:00 16.1 8 Sudoeste 13 Sudoeste 0 -- -- 88
2019-07-28 08:00:00 14.8 9 Sudoeste 19 Oeste 0 -- -- 92
2019-07-28 07:00:00 14.3 11 Oeste 16 Oeste 0 -- -- 93
2019-07-28 06:00:00 14.7 8 Sudoeste 15 Oeste 0 -- -- 91
2019-07-28 05:00:00 15.6 8 Oeste 14 Oeste 0 -- -- 90
2019-07-28 04:00:00 15.7 8 Sudoeste 15 Oeste 0 -- -- 90
2019-07-28 03:00:00 15.4 9 Oeste 14 Oeste 0 -- -- 93
2019-07-28 02:00:00 15.3 9 Oeste 15 Sudoeste 0 -- -- 94
2019-07-28 01:00:00 15.6 8 Oeste 15 Oeste 0 -- -- 95
2019-07-28 00:00:00 16.2 6 Oeste 13 Oeste 0 -- -- 94
2019-07-27 23:00:00 16.6 7 Oeste 12 Oeste 0 -- -- 93
2019-07-26 12:00:00 -- -- -- -- -- -- -- -- --
2019-07-26 11:00:00 -- -- -- -- -- -- -- -- --
2019-07-26 10:00:00 -- -- -- -- -- -- -- -- --
2019-07-26 09:00:00 18 6 Oeste 12 Oeste 0 -- -- 100
2019-07-26 08:00:00 17.7 6 Oeste 11 Sudoeste 0 -- -- 100
2019-07-26 07:00:00 17.6 5 Oeste 8 Oeste 0.2 -- -- 100
2019-07-26 06:00:00 17.7 5 Sudoeste 9 Sudoeste 1.4 -- -- 100
2019-07-26 05:00:00 17.9 3 Oeste 12 Oeste 2.6 -- -- 100
2019-07-26 04:00:00 18.1 3 Sudoeste 6 Sudoeste 1.6 -- -- 100
2019-07-26 03:00:00 18.3 2 Sudoeste 10 Oeste 2.2 -- -- 100
2019-07-26 02:00:00 18.6 3 Oeste 6 Sudoeste 1.4 -- -- 100
2019-07-26 01:00:00 18.7 4 Sudoeste 9 Noroeste 2.4 -- -- 99
2019-07-26 00:00:00 18.8 5 Noroeste 10 Noroeste 0.8 -- -- 98
2019-07-25 23:00:00 19.1 2 Oeste 9 Este 0.8 -- -- 97
2019-07-25 22:00:00 19.3 0 Calma 6 Sudeste 0 -- -- 97
2019-07-25 21:00:00 19.7 3 Sudoeste 7 Oeste 0 -- -- 96
2019-07-25 20:00:00 19.9 3 Oeste 14 Sudeste 0.4 -- -- 93
2019-07-25 19:00:00 21.2 5 Sudoeste 14 Oeste 0 -- -- 87
2019-07-25 18:00:00 22.4 7 Noroeste 24 Norte 0 -- -- 86
2019-07-25 17:00:00 25.4 5 Nordeste 14 Este 0 -- -- 76
2019-07-25 16:00:00 24.5 7 Nordeste 18 Este 0 -- -- 86
2019-07-25 15:00:00 23.7 10 Nordeste 15 Nordeste 0 -- -- 89
2019-07-25 14:00:00 23.1 8 Nordeste 11 Nordeste 0 -- -- 91
2019-07-25 13:00:00 23.6 5 Norte 11 Nordeste 0 -- -- 88
2019-07-25 12:00:00 23.5 8 Nordeste 13 Nordeste 0 -- -- 88
2019-07-25 11:00:00 22.6 5 Nordeste 10 Nordeste 0 -- -- 94
2019-07-25 10:00:00 22.1 5 Nordeste 9 Nordeste 0 -- -- 100
2019-07-25 09:00:00 20.5 6 Sudoeste 10 Sudoeste 0 -- -- 100
2019-07-25 08:00:00 19.5 8 Sudoeste 14 Oeste 0 -- -- 100
2019-07-25 07:00:00 19 4 Sudoeste 8 Sudoeste 0 -- -- 100
2019-07-25 06:00:00 19 7 Sudoeste 12 Sudoeste 0 -- -- 100
2019-07-25 05:00:00 18.4 6 Sudoeste 10 Sudoeste 0 -- -- 100
2019-07-25 04:00:00 18.9 6 Sudoeste 9 Sudoeste 0 -- -- 100
2019-07-25 03:00:00 19 4 Sudoeste 7 Sudoeste 0 -- -- 99
2019-07-25 02:00:00 19.2 2 Oeste 4 Noroeste 0 -- -- 98
2019-07-25 01:00:00 20.2 0 Calma 10 Oeste 0 -- -- 97
2019-07-25 00:00:00 21.1 5 Oeste 12 Oeste 0 -- -- 97
2019-07-24 23:00:00 21.3 3 Oeste 6 Oeste 0 -- -- 96
2019-07-24 22:00:00 22.4 2 Noroeste 4 Nordeste 0 -- -- 94
2019-07-24 21:00:00 22.8 3 Nordeste 5 Este 0 -- -- 93
2019-07-24 20:00:00 23.1 4 Nordeste 9 Nordeste 0 -- -- 93
2019-07-24 19:00:00 23.3 6 Nordeste 14 Este 0 -- -- 91
2019-07-24 18:00:00 23.7 5 Este 16 Este 0 -- -- 89
2019-07-24 17:00:00 24 6 Nordeste 13 Nordeste 0 -- -- 87
2019-07-24 16:00:00 23.4 7 Nordeste 14 Nordeste 0 -- -- 88
2019-07-24 15:00:00 23 7 Nordeste 13 Nordeste 0 -- -- 89
2019-07-24 14:00:00 22.9 7 Nordeste 13 Nordeste 0 -- -- 90
2019-07-24 13:00:00 22.4 6 Norte 10 Norte 0 -- -- 92
2019-07-24 12:00:00 22.1 6 Norte 12 Norte 0 -- -- 92
2019-07-24 11:00:00 21.4 5 Norte 17 Nordeste 0 -- -- 95
2019-07-24 10:00:00 20.7 9 Norte 20 Nordeste 0 -- -- 100
2019-07-24 09:00:00 19.8 5 Nordeste 9 Nordeste 0 -- -- 100
2019-07-24 08:00:00 19.4 0 Calma 4 Sudoeste 0 -- -- 100
2019-07-24 07:00:00 19.1 3 Sudoeste 9 Sudoeste 0 -- -- 100
2019-07-24 06:00:00 19.3 0 Calma 4 Sudoeste 0 -- -- 100
2019-07-24 05:00:00 18.9 2 Sur 7 Sudoeste 0 -- -- 100
2019-07-24 04:00:00 18.9 5 Sudoeste 8 Oeste 0 -- -- 100
2019-07-24 03:00:00 18.8 6 Sudoeste 9 Oeste 0 -- -- 100
2019-07-24 02:00:00 19 2 Sudoeste 12 Oeste 0 -- -- 100
2019-07-24 01:00:00 19.4 6 Oeste 10 Oeste 0 -- -- 100
2019-07-24 00:00:00 19.5 2 Oeste 14 Este 0 -- -- 99
2019-07-23 23:00:00 19.9 4 Nordeste 14 Este 4 -- -- 98
2019-07-23 22:00:00 20.4 3 Nordeste 10 Norte 0 -- -- 97
2019-07-23 21:00:00 20.6 4 Sudoeste 20 Sudoeste 6.8 -- -- 95
2019-07-23 20:00:00 21.9 10 Oeste 23 Oeste 0 -- -- 88
2019-07-23 19:00:00 22.4 11 Oeste 27 Oeste 0 -- -- 89
2019-07-23 18:00:00 23.3 6 Oeste 25 Oeste 0 -- -- 88
2019-07-23 17:00:00 23.4 10 Noroeste 21 Norte 0 -- -- 87
2019-07-23 16:00:00 24.1 12 Norte 20 Norte 0 -- -- 83
2019-07-23 15:00:00 22.3 7 Nordeste 15 Noroeste 0 -- -- 90
2019-07-23 14:00:00 22.2 6 Norte 17 Norte 0 -- -- 89
2019-07-23 13:00:00 22.5 12 Nordeste 15 Norte 0 -- -- 88
2019-07-23 12:00:00 23.2 8 Norte 15 Norte 0 -- -- 89
2019-07-23 11:00:00 22.2 9 Noroeste 16 Noroeste 0 -- -- 96
2019-07-23 10:00:00 21.1 5 Sudoeste 10 Oeste 0 -- -- 100
2019-07-23 09:00:00 19.9 9 Oeste 13 Oeste 0 -- -- 100
2019-07-23 08:00:00 19.4 7 Oeste 12 Oeste 0 -- -- 100
2019-07-23 07:00:00 19.5 8 Oeste 13 Oeste 0 -- -- 100
2019-07-23 06:00:00 19.5 5 Oeste 14 Sudoeste 0 -- -- 100
2019-07-23 05:00:00 19.8 5 Oeste 13 Oeste 0 -- -- 100
2019-07-23 04:00:00 19.5 5 Oeste 10 Sudoeste 0 -- -- 99
2019-07-23 03:00:00 20.1 3 Sudoeste 7 Oeste 0 -- -- 97
2019-07-23 02:00:00 20.9 0 Calma 21 Noroeste 0 -- -- 96
2019-07-23 01:00:00 21.2 5 Oeste 45 Nordeste 0.2 -- -- 94
2019-07-23 00:00:00 21.8 15 Oeste 34 Norte 0.6 -- -- 88
2019-07-22 23:00:00 21.2 7 Nordeste 13 Noroeste 0 -- -- 94
2019-07-22 22:00:00 21.6 4 Nordeste 16 Sur 0 -- -- 93
2019-07-22 21:00:00 21.8 3 Nordeste 8 Nordeste 0 -- -- 93
2019-07-22 20:00:00 22.2 6 Este 10 Este 0 -- -- 92
2019-07-22 19:00:00 22.1 3 Nordeste 10 Nordeste 0 -- -- 92
2019-07-22 18:00:00 22.1 4 Nordeste 12 Nordeste 0 -- -- 92
2019-07-22 17:00:00 22.3 6 Nordeste 13 Este 0 -- -- 90
2019-07-22 16:00:00 22.5 7 Nordeste 21 Este 0 -- -- 89
2019-07-22 15:00:00 23.2 10 Nordeste 21 Nordeste 0 -- -- 86
2019-07-22 14:00:00 23.2 10 Nordeste 17 Nordeste 0 -- -- 86
2019-07-22 13:00:00 22.9 11 Nordeste 17 Nordeste 0 -- -- 87
2019-07-22 12:00:00 22.4 9 Nordeste 18 Este 0 -- -- 88
2019-07-22 11:00:00 21.5 11 Nordeste 20 Nordeste 0 -- -- 90
2019-07-22 10:00:00 20.9 9 Nordeste 21 Este 0 -- -- 91
2019-07-22 09:00:00 20.7 12 Este 22 Este 0 -- -- 92
2019-07-22 08:00:00 20.1 7 Este 19 Este 0 -- -- 95
2019-07-22 07:00:00 20.3 12 Este 20 Sudeste 0 -- -- 94
2019-07-22 06:00:00 20.4 12 Este 21 Este 0 -- -- 93
2019-07-22 05:00:00 20.4 12 Este 23 Este 0 -- -- 94
2019-07-22 04:00:00 20.4 13 Este 23 Este 0 -- -- 94
2019-07-22 03:00:00 20.1 8 Este 14 Este 0 -- -- 96
2019-07-22 02:00:00 20.4 4 Nordeste 14 Este 0 -- -- 96
2019-07-22 01:00:00 20.7 3 Este 11 Este 0 -- -- 95
2019-07-22 00:00:00 20.6 4 Nordeste 10 Este 0 -- -- 95
2019-07-21 23:00:00 20.8 4 Nordeste 7 Este 0 -- -- 93
2019-07-21 22:00:00 20.8 4 Nordeste 9 Nordeste 0 -- -- 91
2019-07-21 21:00:00 21.1 6 Nordeste 10 Nordeste 0 -- -- 88
2019-07-21 20:00:00 21.5 6 Nordeste 12 Este 0 -- -- 88
2019-07-21 19:00:00 21.3 2 Sudeste 11 Este 0 -- -- 92
2019-07-21 18:00:00 21.9 5 Sudeste 8 Sudeste 0.2 -- -- 90
2019-07-21 17:00:00 22.4 3 Nordeste 8 Nordeste 0 -- -- 87
2019-07-21 16:00:00 21.4 5 Norte 11 Nordeste 0 -- -- 89
2019-07-21 15:00:00 21.4 4 Nordeste 10 Nordeste 0 -- -- 90
2019-07-21 14:00:00 21.2 5 Norte 11 Norte 0 -- -- 91
2019-07-21 13:00:00 21.4 7 Norte 13 Norte 0 -- -- 93
2019-07-21 12:00:00 20.4 6 Norte 12 Norte 0 -- -- 98
2019-07-21 11:00:00 20.1 6 Nordeste 9 Nordeste 0 -- -- 100
2019-07-21 10:00:00 18.8 5 Oeste 11 Oeste 0 -- -- 100
2019-07-21 09:00:00 18.3 5 Sudoeste 10 Sudoeste 0.4 -- -- 100
2019-07-21 08:00:00 18.1 6 Sudoeste 10 Sudoeste 0 -- -- 99
2019-07-21 07:00:00 17.9 6 Oeste 14 Oeste 1 -- -- 98
2019-07-21 06:00:00 18.2 5 Oeste 8 Oeste 0.4 -- -- 96
2019-07-21 05:00:00 18.9 4 Sudoeste 7 Oeste 0 -- -- 91
2019-07-21 04:00:00 18.9 5 Oeste 9 Oeste 0 -- -- 91
2019-07-21 03:00:00 19 2 Oeste 3 Oeste 0 -- -- 91
2019-07-21 02:00:00 19.4 0 Calma 8 Oeste 0 -- -- 88
2019-07-21 01:00:00 19.7 4 Oeste 10 Oeste 0 -- -- 86
2019-07-21 00:00:00 19.8 5 Oeste 10 Sudoeste 0 -- -- 86
2019-07-20 23:00:00 20.2 4 Oeste 7 Noroeste 0 -- -- 87
2019-07-20 22:00:00 20.6 2 Oeste 6 Oeste 0 -- -- 87
2019-07-20 21:00:00 21 3 Noroeste 5 Oeste 0 -- -- 86
2019-07-20 20:00:00 21.4 0 Calma 8 Oeste 0 -- -- 85
2019-07-20 19:00:00 21.4 4 Noroeste 11 Norte 0 -- -- 85
2019-07-20 18:00:00 21.9 5 Nordeste 8 Norte 0 -- -- 81
2019-07-20 17:00:00 21.9 5 Nordeste 9 Este 0 -- -- 80
2019-07-20 16:00:00 22.4 4 Nordeste 10 Nordeste 0 -- -- 81
2019-07-20 15:00:00 23.1 7 Nordeste 13 Este 0 -- -- 75
2019-07-20 14:00:00 23.4 10 Este 14 Nordeste 0 -- -- 74
2019-07-20 13:00:00 22.4 9 Norte 16 Nordeste 0 -- -- 82
2019-07-20 12:00:00 22.6 9 Norte 15 Nordeste 0 -- -- 80
2019-07-20 11:00:00 22 6 Nordeste 12 Norte 0 -- -- 87
2019-07-20 10:00:00 20.8 4 Este 8 Nordeste 0 -- -- 90
2019-07-20 09:00:00 19.3 5 Sudoeste 8 Sudoeste 0 -- -- 96
2019-07-20 08:00:00 17.6 3 Oeste 6 Sudoeste 0 -- -- 97
2019-07-20 07:00:00 17.5 5 Oeste 10 Oeste 0 -- -- 95
2019-07-20 06:00:00 18 7 Oeste 10 Oeste 0 -- -- 97
2019-07-20 05:00:00 18.2 8 Oeste 13 Oeste 0 -- -- 99
2019-07-20 04:00:00 18.2 8 Sudoeste 12 Sudoeste 0 -- -- 99
2019-07-20 03:00:00 18.1 6 Sudoeste 12 Sudoeste 0 -- -- 99
2019-07-20 02:00:00 17.9 8 Oeste 11 Oeste 0 -- -- 98
2019-07-20 01:00:00 18.1 5 Sudoeste 9 Oeste 0 -- -- 97
2019-07-20 00:00:00 18.7 5 Oeste 9 Oeste 0 -- -- 96
2019-07-19 23:00:00 18.9 3 Oeste 6 Noroeste 0 -- -- 93
2019-07-19 22:00:00 20.4 2 Noroeste 6 Nordeste 0 -- -- 88
2019-07-19 21:00:00 22 4 Nordeste 8 Este 0 -- -- 83
2019-07-19 20:00:00 22.8 5 Nordeste 13 Nordeste 0 -- -- 80
2019-07-19 19:00:00 22.8 9 Nordeste 19 Este 0 -- -- 81
2019-07-19 18:00:00 23.1 10 Nordeste 18 Este 0 -- -- 80
2019-07-19 17:00:00 23.5 9 Nordeste 18 Nordeste 0 -- -- 78
2019-07-19 16:00:00 23.1 11 Nordeste 20 Nordeste 0 -- -- 79
2019-07-19 15:00:00 23.3 9 Nordeste 18 Nordeste 0 -- -- 79
2019-07-19 14:00:00 22.5 12 Nordeste 18 Nordeste 0 -- -- 80
2019-07-19 13:00:00 22.3 10 Nordeste 17 Este 0 -- -- 82
2019-07-19 12:00:00 21.6 10 Nordeste 18 Nordeste 0 -- -- 81
2019-07-19 11:00:00 20.5 9 Norte 14 Nordeste 0 -- -- 83
2019-07-19 10:00:00 19.3 7 Norte 12 Nordeste 0 -- -- 84
2019-07-19 09:00:00 16.9 8 Sudoeste 15 Sudoeste 0 -- -- 90
2019-07-19 08:00:00 14.8 11 Sudoeste 16 Oeste 0 -- -- 94
2019-07-19 07:00:00 14.4 10 Sudoeste 15 Oeste 0 -- -- 94
2019-07-19 06:00:00 14.1 8 Sudoeste 15 Sudoeste 0 -- -- 93
2019-07-19 05:00:00 14.4 9 Sudoeste 16 Oeste 0 -- -- 91
2019-07-19 04:00:00 14.5 10 Sudoeste 15 Oeste 0 -- -- 93
2019-07-19 03:00:00 14.9 8 Sudoeste 15 Oeste 0 -- -- 94
2019-07-19 02:00:00 15.3 8 Sudoeste 14 Sudoeste 0 -- -- 94
2019-07-19 01:00:00 15.9 9 Sudoeste 14 Oeste 0 -- -- 93
2019-07-19 00:00:00 16.4 9 Oeste 14 Oeste 0 -- -- 93